createdAt,value
2023-03-01T00:01:52.769Z,29.25
2023-03-01T00:05:17.246Z,22.42
2023-03-01T00:08:39.696Z,25.47
2023-03-01T00:12:02.294Z,21.27
2023-03-01T00:15:24.728Z,21.58
2023-03-01T00:18:47.843Z,18.27
2023-03-01T00:22:11.699Z,18.67
2023-03-01T00:25:34.517Z,17.70
2023-03-01T00:28:57.486Z,16.60
2023-03-01T00:32:20.498Z,17.98
2023-03-01T00:35:42.987Z,17.33
2023-03-01T00:39:08.413Z,19.40
2023-03-01T00:42:30.762Z,18.77
2023-03-01T00:45:53.843Z,17.92
2023-03-01T00:49:16.880Z,17.62
2023-03-01T00:52:39.448Z,20.75
2023-03-01T00:56:03.651Z,20.87
2023-03-01T00:59:26.604Z,19.15
2023-03-01T01:02:49.358Z,19.55
2023-03-01T01:06:16.182Z,18.48
2023-03-01T01:09:38.968Z,22.92
2023-03-01T01:13:03.131Z,21.77
2023-03-01T01:16:26.617Z,22.20
2023-03-01T01:19:49.346Z,22.40
2023-03-01T01:23:11.905Z,20.65
2023-03-01T01:26:35.695Z,23.77
2023-03-01T01:29:59.627Z,19.60
2023-03-01T01:33:22.652Z,20.55
2023-03-01T01:36:44.976Z,21.55
2023-03-01T01:40:08.834Z,20.33
2023-03-01T01:43:32.221Z,23.45
2023-03-01T01:46:57.714Z,19.27
2023-03-01T01:50:20.083Z,19.58
2023-03-01T01:53:43.228Z,22.42
2023-03-01T01:57:08.827Z,19.77
2023-03-01T02:00:31.923Z,18.42
2023-03-01T02:03:55.919Z,19.83
2023-03-01T02:07:19.579Z,17.58
2023-03-01T02:10:42.850Z,17.77
2023-03-01T02:14:06.079Z,18.80
2023-03-01T02:17:28.422Z,18.17
2023-03-01T02:21:00.906Z,21.92
2023-03-01T02:24:39.819Z,18.15
2023-03-01T02:28:07.349Z,17.62
2023-03-01T02:31:46.086Z,19.17
2023-03-01T02:35:09.282Z,19.70
2023-03-01T02:38:31.866Z,23.20
2023-03-01T02:41:55.643Z,21.75
2023-03-01T02:45:18.271Z,20.90
2023-03-01T02:48:47.054Z,19.60
2023-03-01T02:52:41.176Z,22.50
2023-03-01T02:56:05.675Z,20.17
2023-03-01T02:59:30.892Z,20.30
2023-03-01T03:02:54.596Z,21.23
2023-03-01T03:06:18.682Z,19.47
2023-03-01T03:09:41.882Z,21.35
2023-03-01T03:13:05.509Z,23.80
2023-03-01T03:16:28.962Z,20.90
2023-03-01T03:19:52.022Z,24.53
2023-03-01T03:23:15.944Z,22.73
2023-03-01T03:26:38.564Z,22.37
2023-03-01T03:30:01.069Z,25.98
2023-03-01T03:33:23.562Z,21.30
2023-03-01T03:36:46.643Z,23.60
2023-03-01T03:40:16.525Z,21.60
2023-03-01T03:43:40.112Z,22.23
2023-03-01T03:47:02.364Z,21.25
2023-03-01T03:50:24.881Z,21.02
2023-03-01T03:53:47.412Z,20.53
2023-03-01T03:57:11.414Z,21.83
2023-03-01T04:00:34.275Z,20.00
2023-03-01T04:03:57.098Z,20.20
2023-03-01T04:07:19.688Z,19.90
2023-03-01T04:10:43.390Z,22.65
2023-03-01T04:14:07.404Z,25.02
2023-03-01T04:17:30.220Z,19.50
2023-03-01T04:20:56.477Z,21.42
2023-03-01T04:24:19.377Z,22.62
2023-03-01T04:27:41.910Z,22.42
2023-03-01T04:31:14.414Z,18.05
2023-03-01T04:34:37.234Z,19.60
2023-03-01T04:38:00.430Z,17.23
2023-03-01T04:41:23.722Z,22.58
2023-03-01T04:44:46.403Z,21.67
2023-03-01T04:48:10.459Z,21.77
2023-03-01T04:51:34.166Z,16.83
2023-03-01T04:54:56.852Z,18.48
2023-03-01T04:58:19.272Z,16.70
2023-03-01T05:01:43.928Z,24.75
2023-03-01T05:05:09.066Z,19.33
2023-03-01T05:08:31.484Z,19.50
2023-03-01T05:11:54.392Z,19.27
2023-03-01T05:15:17.114Z,17.98
2023-03-01T05:18:39.987Z,18.58
2023-03-01T05:22:05.139Z,19.00
2023-03-01T05:25:27.887Z,17.00
2023-03-01T05:28:50.932Z,16.62
2023-03-01T05:32:16.878Z,20.48
2023-03-01T05:35:39.644Z,16.35
2023-03-01T05:39:04.806Z,15.13
2023-03-01T05:42:27.372Z,18.15
2023-03-01T05:45:50.013Z,19.90
2023-03-01T05:49:14.479Z,15.32
2023-03-01T05:52:36.860Z,15.20
2023-03-01T05:56:01.349Z,16.23
2023-03-01T05:59:24.124Z,13.60
2023-03-01T06:02:46.720Z,20.12
2023-03-01T06:06:09.631Z,18.40
2023-03-01T06:09:32.254Z,16.00
2023-03-01T06:12:56.423Z,18.30
2023-03-01T06:16:18.869Z,20.77
2023-03-01T06:19:41.850Z,26.20
2023-03-01T06:23:04.505Z,21.10
2023-03-01T06:26:27.279Z,18.10
2023-03-01T06:29:51.106Z,21.70
2023-03-01T06:33:14.197Z,20.45
2023-03-01T06:36:36.359Z,21.15
2023-03-01T06:39:59.281Z,29.90
2023-03-01T06:43:21.768Z,21.02
2023-03-01T06:46:46.273Z,19.65
2023-03-01T06:50:09.754Z,24.87
2023-03-01T06:53:32.878Z,23.35
2023-03-01T06:56:55.128Z,23.03
2023-03-01T07:00:18.576Z,18.42
2023-03-01T07:03:45.412Z,20.55
2023-03-01T07:07:08.214Z,19.58
2023-03-01T07:10:30.792Z,19.07
2023-03-01T07:13:53.517Z,22.00
2023-03-01T07:17:15.770Z,17.35
2023-03-01T07:20:40.200Z,18.20
2023-03-01T07:24:02.922Z,18.40
2023-03-01T07:27:25.830Z,16.83
2023-03-01T07:30:48.321Z,20.50
2023-03-01T07:34:11.766Z,17.90
2023-03-01T07:37:35.610Z,17.00
2023-03-01T07:41:02.279Z,15.63
2023-03-01T07:44:24.940Z,19.35
2023-03-01T07:47:49.844Z,15.48
2023-03-01T07:51:12.467Z,14.95
2023-03-01T07:54:36.401Z,18.55
2023-03-01T07:57:58.603Z,17.40
2023-03-01T08:01:21.856Z,15.70
2023-03-01T08:04:45.023Z,16.12
2023-03-01T08:08:07.405Z,14.45
2023-03-01T08:11:31.673Z,14.98
2023-03-01T08:14:54.201Z,14.13
2023-03-01T08:18:17.360Z,16.42
2023-03-01T08:21:39.744Z,18.23
2023-03-01T08:25:02.900Z,16.00
2023-03-01T08:28:26.823Z,26.08
2023-03-01T08:31:49.738Z,13.73
2023-03-01T08:35:12.185Z,14.07
2023-03-01T08:38:34.740Z,11.88
2023-03-01T08:41:57.016Z,12.95
2023-03-01T08:45:20.854Z,14.45
2023-03-01T08:48:44.218Z,12.13
2023-03-01T08:52:07.223Z,13.18
2023-03-01T08:55:29.752Z,13.27
2023-03-01T08:58:52.290Z,14.43
2023-03-01T09:02:17.031Z,16.02
2023-03-01T09:05:39.823Z,12.90
2023-03-01T09:09:02.330Z,13.48
2023-03-01T09:12:25.977Z,16.58
2023-03-01T09:15:48.299Z,16.60
2023-03-01T09:19:12.420Z,12.63
2023-03-01T09:22:35.749Z,13.52
2023-03-01T09:25:58.424Z,11.32
2023-03-01T09:29:20.904Z,12.32
2023-03-01T09:32:45.754Z,12.73
2023-03-01T09:36:10.714Z,12.60
2023-03-01T09:39:37.100Z,12.80
2023-03-01T09:43:03.439Z,11.65
2023-03-01T09:46:26.535Z,14.73
2023-03-01T09:49:52.399Z,14.13
2023-03-01T09:53:18.215Z,15.33
2023-03-01T09:56:42.130Z,15.82
2023-03-01T10:00:14.040Z,12.27
2023-03-01T10:03:38.946Z,12.57
2023-03-01T10:07:08.828Z,12.43
2023-03-01T10:10:35.602Z,11.27
2023-03-01T10:14:00.906Z,13.38
2023-03-01T10:17:28.629Z,13.00
2023-03-01T10:20:54.652Z,13.52
2023-03-01T10:24:20.041Z,10.77
2023-03-01T10:27:47.773Z,18.95
2023-03-01T10:31:12.625Z,13.73
2023-03-01T10:34:36.534Z,12.98
2023-03-01T10:38:00.643Z,10.20
2023-03-01T10:41:25.786Z,11.03
2023-03-01T10:44:50.941Z,11.40
2023-03-01T10:48:15.260Z,12.00
2023-03-01T10:51:38.401Z,9.80
2023-03-01T10:55:01.788Z,13.98
2023-03-01T10:58:24.879Z,10.27
2023-03-01T11:01:48.812Z,10.93
2023-03-01T11:05:20.623Z,12.63
2023-03-01T11:08:43.922Z,11.85
2023-03-01T11:12:10.983Z,10.43
2023-03-01T11:15:33.161Z,8.32
2023-03-01T11:19:01.628Z,9.48
2023-03-01T11:22:24.122Z,10.57
2023-03-01T11:25:50.109Z,12.48
2023-03-01T11:29:17.634Z,9.43
2023-03-01T11:32:42.501Z,9.68
2023-03-01T11:36:16.201Z,10.95
2023-03-01T11:39:41.149Z,12.48
2023-03-01T11:43:08.666Z,9.43
2023-03-01T11:46:44.478Z,9.37
2023-03-01T11:50:16.292Z,10.10
2023-03-01T11:53:52.962Z,12.10
2023-03-01T11:57:18.305Z,10.93
2023-03-01T12:01:12.288Z,13.95
2023-03-01T12:04:46.611Z,10.40
2023-03-01T12:08:10.973Z,11.88
2023-03-01T12:11:42.387Z,9.52
2023-03-01T12:15:19.506Z,11.73
2023-03-01T12:18:53.573Z,9.50
2023-03-01T12:22:23.730Z,9.57
2023-03-01T12:25:48.077Z,8.95
2023-03-01T12:29:27.513Z,9.95
2023-03-01T12:32:54.822Z,9.93
2023-03-01T12:36:49.254Z,10.68
2023-03-01T12:40:22.680Z,9.33
2023-03-01T12:43:52.161Z,14.27
2023-03-01T12:47:22.527Z,10.07
2023-03-01T12:50:46.163Z,11.75
2023-03-01T12:54:16.706Z,9.75
2023-03-01T12:57:40.642Z,10.73
2023-03-01T13:01:08.276Z,9.88
2023-03-01T13:04:39.759Z,11.10
2023-03-01T13:08:04.916Z,9.02
2023-03-01T13:11:27.182Z,10.75
2023-03-01T13:14:50.060Z,10.23
2023-03-01T13:18:30.588Z,14.05
2023-03-01T13:21:56.262Z,10.32
2023-03-01T13:25:25.676Z,10.68
2023-03-01T13:29:01.784Z,12.18
2023-03-01T13:32:48.866Z,9.17
2023-03-01T13:36:14.402Z,10.93
2023-03-01T13:39:42.625Z,11.77
2023-03-01T13:43:30.028Z,10.82
2023-03-01T13:46:52.275Z,10.30
2023-03-01T13:50:20.587Z,15.37
2023-03-01T13:53:45.192Z,11.63
2023-03-01T13:57:14.911Z,10.50
2023-03-01T14:00:38.623Z,9.32
2023-03-01T14:04:01.484Z,8.27
2023-03-01T14:07:25.307Z,9.40
2023-03-01T14:10:56.139Z,9.38
2023-03-01T14:14:42.802Z,9.75
2023-03-01T14:18:06.363Z,11.25
2023-03-01T14:21:29.065Z,8.95
2023-03-01T14:24:52.842Z,9.87
2023-03-01T14:28:17.307Z,10.50
2023-03-01T14:31:52.430Z,9.00
2023-03-01T14:35:22.047Z,10.02
2023-03-01T14:38:46.033Z,9.50
2023-03-01T14:42:15.422Z,13.10
2023-03-01T14:45:38.703Z,12.60
2023-03-01T14:49:04.515Z,8.52
2023-03-01T14:52:30.607Z,5.95
2023-03-01T14:55:54.091Z,9.30
2023-03-01T14:59:16.745Z,8.13
2023-03-01T15:02:40.619Z,8.23
2023-03-01T15:06:05.867Z,11.98
2023-03-01T15:09:28.305Z,9.82
2023-03-01T15:12:53.352Z,7.95
2023-03-01T15:16:16.481Z,6.33
2023-03-01T15:19:39.397Z,7.87
2023-03-01T15:23:03.462Z,6.82
2023-03-01T15:26:27.319Z,6.87
2023-03-01T15:29:53.680Z,9.35
2023-03-01T15:33:35.867Z,7.67
2023-03-01T15:37:00.220Z,9.00
2023-03-01T15:40:32.379Z,9.82
2023-03-01T15:43:56.783Z,10.57
2023-03-01T15:47:32.687Z,13.00
2023-03-01T15:50:57.302Z,10.00
2023-03-01T15:54:21.887Z,7.87
2023-03-01T15:57:45.903Z,11.95
2023-03-01T16:01:13.816Z,13.60
2023-03-01T16:04:39.845Z,8.45
2023-03-01T16:08:02.934Z,8.13
2023-03-01T16:11:26.035Z,8.15
2023-03-01T16:14:51.056Z,9.98
2023-03-01T16:18:15.426Z,9.52
2023-03-01T16:21:38.181Z,12.00
2023-03-01T16:25:01.408Z,28.80
2023-03-01T16:28:24.801Z,10.10
2023-03-01T16:31:49.358Z,13.57
2023-03-01T16:35:16.047Z,11.70
2023-03-01T16:38:41.714Z,12.32
2023-03-01T16:42:04.033Z,12.50
2023-03-01T16:45:27.123Z,17.60
2023-03-01T16:48:52.345Z,14.77
2023-03-01T16:52:15.104Z,14.45
2023-03-01T16:55:37.932Z,10.63
2023-03-01T16:59:04.400Z,9.88
2023-03-01T17:02:29.143Z,14.82
2023-03-01T17:05:54.135Z,15.13
2023-03-01T17:09:18.111Z,13.48
2023-03-01T17:12:41.052Z,12.37
2023-03-01T17:16:05.962Z,25.42
2023-03-01T17:19:30.200Z,14.63
2023-03-01T17:22:59.264Z,22.45
2023-03-01T17:26:22.629Z,12.48
2023-03-01T17:29:47.885Z,19.93
2023-03-01T17:33:11.836Z,16.87
2023-03-01T17:36:42.164Z,17.30
2023-03-01T17:40:08.748Z,15.60
2023-03-01T17:43:34.436Z,14.20
2023-03-01T17:47:02.425Z,16.50
2023-03-01T17:50:26.331Z,25.15
2023-03-01T17:53:54.175Z,19.62
2023-03-01T17:57:18.584Z,14.32
2023-03-01T18:00:42.301Z,21.12
2023-03-01T18:04:08.746Z,17.13
2023-03-01T18:07:31.872Z,18.00
2023-03-01T18:11:00.711Z,22.73
2023-03-01T18:14:26.504Z,20.85
2023-03-01T18:17:50.070Z,17.52
2023-03-01T18:21:13.705Z,18.37
2023-03-01T18:24:40.698Z,13.27
2023-03-01T18:28:05.258Z,11.48
2023-03-01T18:31:33.645Z,13.65
2023-03-01T18:34:57.196Z,11.40
2023-03-01T18:38:21.205Z,14.50
2023-03-01T18:41:44.884Z,13.27
2023-03-01T18:45:11.847Z,15.07
2023-03-01T18:48:39.042Z,19.37
2023-03-01T18:52:04.770Z,17.15
2023-03-01T18:55:29.443Z,15.77
2023-03-01T18:58:58.335Z,22.30
2023-03-01T19:02:25.527Z,21.65
2023-03-01T19:05:52.233Z,29.95
2023-03-01T19:09:16.837Z,33.42
2023-03-01T19:12:44.230Z,39.93
2023-03-01T19:16:10.118Z,35.95
2023-03-01T19:19:35.738Z,37.85
2023-03-01T19:23:00.778Z,33.72
2023-03-01T19:26:31.382Z,30.55
2023-03-01T19:29:56.743Z,29.63
2023-03-01T19:33:21.596Z,28.87
2023-03-01T19:36:45.767Z,34.83
2023-03-01T19:40:14.593Z,41.92
2023-03-01T19:43:41.486Z,45.90
2023-03-01T19:47:08.661Z,51.28
2023-03-01T19:50:33.492Z,61.55
2023-03-01T19:53:58.850Z,44.80
2023-03-01T19:57:25.343Z,49.33
2023-03-01T20:00:50.453Z,42.63
2023-03-01T20:04:16.751Z,43.03
2023-03-01T20:07:44.596Z,47.95
2023-03-01T20:11:11.941Z,44.75
2023-03-01T20:14:36.424Z,43.97
2023-03-01T20:18:02.745Z,38.37
2023-03-01T20:21:28.483Z,32.83
2023-03-01T20:24:52.845Z,35.70
2023-03-01T20:28:17.527Z,38.80
2023-03-01T20:31:44.099Z,44.15
2023-03-01T20:35:09.354Z,46.73
2023-03-01T20:38:37.075Z,43.95
2023-03-01T20:42:01.110Z,47.78
2023-03-01T20:45:27.984Z,47.28
2023-03-01T20:48:54.020Z,44.10
2023-03-01T20:52:18.075Z,46.03
2023-03-01T20:55:40.716Z,42.55
2023-03-01T20:59:05.942Z,39.15
2023-03-01T21:02:29.694Z,41.75
2023-03-01T21:05:56.987Z,43.15
2023-03-01T21:09:19.764Z,42.83
2023-03-01T21:12:43.212Z,47.58
2023-03-01T21:16:10.736Z,42.10
2023-03-01T21:19:34.016Z,39.90
2023-03-01T21:22:58.197Z,34.88
2023-03-01T21:26:21.999Z,40.07
2023-03-01T21:29:45.942Z,45.17
2023-03-01T21:33:10.446Z,38.70
2023-03-01T21:36:33.839Z,35.78
2023-03-01T21:39:58.308Z,32.70
2023-03-01T21:43:20.989Z,33.63
2023-03-01T21:46:43.750Z,28.23
2023-03-01T21:50:08.695Z,26.87
2023-03-01T21:53:33.198Z,25.05
2023-03-01T21:56:57.024Z,17.73
2023-03-01T22:00:23.432Z,17.73
2023-03-01T22:03:46.438Z,18.62
2023-03-01T22:07:09.022Z,17.50
2023-03-01T22:10:32.061Z,17.65
2023-03-01T22:13:56.632Z,16.20
2023-03-01T22:17:19.228Z,16.73
2023-03-01T22:20:41.807Z,15.63
2023-03-01T22:24:05.375Z,15.40
2023-03-01T22:27:29.155Z,13.48
2023-03-01T22:30:53.647Z,15.82
2023-03-01T22:34:17.257Z,15.27
2023-03-01T22:37:40.000Z,14.63
2023-03-01T22:41:04.062Z,18.40
2023-03-01T22:44:27.220Z,19.83
2023-03-01T22:47:51.095Z,22.70
2023-03-01T22:51:15.566Z,21.87
2023-03-01T22:54:38.180Z,20.12
2023-03-01T22:58:00.807Z,19.23
2023-03-01T23:01:24.119Z,20.35
2023-03-01T23:04:48.546Z,22.00
2023-03-01T23:08:11.178Z,21.52
2023-03-01T23:11:34.225Z,21.55
2023-03-01T23:14:56.601Z,18.12
2023-03-01T23:18:19.100Z,19.87
2023-03-01T23:21:46.645Z,18.40
2023-03-01T23:25:12.280Z,17.35
2023-03-01T23:28:34.826Z,18.80
2023-03-01T23:31:58.027Z,24.48
2023-03-01T23:35:20.954Z,20.42
2023-03-01T23:38:45.357Z,18.07
2023-03-01T23:42:08.064Z,17.23
2023-03-01T23:45:30.751Z,16.40
2023-03-01T23:48:55.438Z,19.75
2023-03-01T23:52:18.406Z,16.37
2023-03-01T23:55:45.944Z,18.03
2023-03-01T23:59:10.404Z,19.33
